createdAt,value
2023-01-26T00:00:45.478Z,1011.90
2023-01-26T00:01:45.477Z,1011.90
2023-01-26T00:02:45.529Z,1011.87
2023-01-26T00:03:45.511Z,1011.86
2023-01-26T00:04:45.445Z,1011.84
2023-01-26T00:05:45.431Z,1011.84
2023-01-26T00:06:45.433Z,1011.83
2023-01-26T00:07:45.402Z,1011.82
2023-01-26T00:08:45.423Z,1011.80
2023-01-26T00:09:45.375Z,1011.78
2023-01-26T00:10:45.397Z,1011.76
2023-01-26T00:11:45.345Z,1011.74
2023-01-26T00:12:45.343Z,1011.72
2023-01-26T00:13:45.327Z,1011.69
2023-01-26T00:14:45.345Z,1011.68
2023-01-26T00:15:45.342Z,1011.68
2023-01-26T00:16:45.334Z,1011.67
2023-01-26T00:17:45.287Z,1011.66
2023-01-26T00:18:45.289Z,1011.64
2023-01-26T00:19:45.277Z,1011.63
2023-01-26T00:20:45.302Z,1011.62
2023-01-26T00:21:45.289Z,1011.61
2023-01-26T00:22:45.243Z,1011.59
2023-01-26T00:23:45.227Z,1011.57
2023-01-26T00:24:45.230Z,1011.56
2023-01-26T00:25:45.203Z,1011.55
2023-01-26T00:26:45.215Z,1011.55
2023-01-26T00:27:45.204Z,1011.55
2023-01-26T00:28:45.198Z,1011.57
2023-01-26T00:29:45.171Z,1011.58
2023-01-26T00:30:45.230Z,1011.59
2023-01-26T00:31:45.246Z,1011.58
2023-01-26T00:32:45.143Z,1011.57
2023-01-26T00:33:45.186Z,1011.55
2023-01-26T00:34:45.113Z,1011.53
2023-01-26T00:35:45.097Z,1011.52
2023-01-26T00:36:45.096Z,1011.52
2023-01-26T00:37:45.074Z,1011.53
2023-01-26T00:38:45.086Z,1011.53
2023-01-26T00:39:45.079Z,1011.53
2023-01-26T00:40:45.056Z,1011.52
2023-01-26T00:41:45.033Z,1011.53
2023-01-26T00:42:45.040Z,1011.52
2023-01-26T00:43:45.030Z,1011.51
2023-01-26T00:44:45.047Z,1011.51
2023-01-26T00:45:44.993Z,1011.52
2023-01-26T00:46:45.063Z,1011.54
2023-01-26T00:47:44.984Z,1011.57
2023-01-26T00:48:45.007Z,1011.60
2023-01-26T00:49:44.974Z,1011.59
2023-01-26T00:50:44.990Z,1011.58
2023-01-26T00:51:44.929Z,1011.56
2023-01-26T00:52:44.955Z,1011.54
2023-01-26T00:53:44.939Z,1011.52
2023-01-26T00:54:44.928Z,1011.50
2023-01-26T00:55:44.905Z,1011.49
2023-01-26T00:56:44.893Z,1011.48
2023-01-26T00:57:44.885Z,1011.48
2023-01-26T00:58:44.895Z,1011.49
2023-01-26T00:59:44.855Z,1011.51
2023-01-26T01:00:44.875Z,1011.51
2023-01-26T01:01:44.908Z,1011.51
2023-01-26T01:02:44.850Z,1011.49
2023-01-26T01:03:44.814Z,1011.48
2023-01-26T01:04:44.823Z,1011.46
2023-01-26T01:05:44.793Z,1011.45
2023-01-26T01:06:44.813Z,1011.45
2023-01-26T01:07:44.816Z,1011.47
2023-01-26T01:08:44.776Z,1011.48
2023-01-26T01:09:44.779Z,1011.49
2023-01-26T01:10:44.751Z,1011.53
2023-01-26T01:11:44.740Z,1011.54
2023-01-26T01:12:44.741Z,1011.56
2023-01-26T01:13:44.720Z,1011.56
2023-01-26T01:14:44.717Z,1011.56
2023-01-26T01:15:44.685Z,1011.55
2023-01-26T01:16:44.695Z,1011.54
2023-01-26T01:17:44.687Z,1011.54
2023-01-26T01:18:44.688Z,1011.54
2023-01-26T01:19:44.663Z,1011.53
2023-01-26T01:20:44.656Z,1011.54
2023-01-26T01:21:44.653Z,1011.54
2023-01-26T01:22:44.657Z,1011.55
2023-01-26T01:23:44.631Z,1011.57
2023-01-26T01:24:44.605Z,1011.58
2023-01-26T01:25:44.583Z,1011.59
2023-01-26T01:26:44.595Z,1011.58
2023-01-26T01:27:44.576Z,1011.58
2023-01-26T01:28:44.569Z,1011.56
2023-01-26T01:29:44.562Z,1011.57
2023-01-26T01:30:44.586Z,1011.57
2023-01-26T01:31:44.584Z,1011.59
2023-01-26T01:32:44.515Z,1011.58
2023-01-26T01:33:44.515Z,1011.57
2023-01-26T01:34:44.511Z,1011.56
2023-01-26T01:35:44.494Z,1011.55
2023-01-26T01:36:44.489Z,1011.54
2023-01-26T01:37:44.454Z,1011.52
2023-01-26T01:38:44.467Z,1011.52
2023-01-26T01:39:44.453Z,1011.51
2023-01-26T01:40:44.453Z,1011.51
2023-01-26T01:41:44.427Z,1011.49
2023-01-26T01:42:44.541Z,1011.50
2023-01-26T01:43:44.413Z,1011.50
2023-01-26T01:44:44.408Z,1011.50
2023-01-26T01:45:44.431Z,1011.51
2023-01-26T01:46:44.547Z,1011.50
2023-01-26T01:47:44.376Z,1011.49
2023-01-26T01:48:44.365Z,1011.50
2023-01-26T01:49:44.346Z,1011.52
2023-01-26T01:50:44.339Z,1011.52
2023-01-26T01:51:44.320Z,1011.53
2023-01-26T01:52:44.350Z,1011.52
2023-01-26T01:53:44.289Z,1011.51
2023-01-26T01:54:44.300Z,1011.49
2023-01-26T01:55:44.267Z,1011.47
2023-01-26T01:56:44.275Z,1011.45
2023-01-26T01:57:44.274Z,1011.43
2023-01-26T01:58:44.267Z,1011.41
2023-01-26T01:59:44.235Z,1011.42
2023-01-26T02:00:44.343Z,1011.40
2023-01-26T02:01:44.251Z,1011.40
2023-01-26T02:02:44.232Z,1011.37
2023-01-26T02:03:44.219Z,1011.35
2023-01-26T02:04:44.195Z,1011.32
2023-01-26T02:05:44.209Z,1011.31
2023-01-26T02:06:44.172Z,1011.32
2023-01-26T02:07:44.156Z,1011.33
2023-01-26T02:08:44.169Z,1011.35
2023-01-26T02:09:44.130Z,1011.37
2023-01-26T02:10:44.167Z,1011.36
2023-01-26T02:11:44.137Z,1011.36
2023-01-26T02:12:44.126Z,1011.32
2023-01-26T02:13:44.083Z,1011.31
2023-01-26T02:14:44.095Z,1011.27
2023-01-26T02:15:44.111Z,1011.26
2023-01-26T02:16:44.076Z,1011.24
2023-01-26T02:17:44.111Z,1011.22
2023-01-26T02:18:44.059Z,1011.22
2023-01-26T02:19:44.045Z,1011.23
2023-01-26T02:20:44.040Z,1011.25
2023-01-26T02:21:44.020Z,1011.27
2023-01-26T02:22:44.055Z,1011.28
2023-01-26T02:23:44.007Z,1011.28
2023-01-26T02:24:44.000Z,1011.29
2023-01-26T02:25:44.017Z,1011.27
2023-01-26T02:26:43.977Z,1011.26
2023-01-26T02:27:43.958Z,1011.23
2023-01-26T02:28:43.959Z,1011.20
2023-01-26T02:29:43.912Z,1011.21
2023-01-26T07:00:53.461Z,1010.48
2023-01-26T07:01:54.340Z,1010.48
2023-01-26T07:02:54.350Z,1010.48
2023-01-26T07:03:54.333Z,1010.49
2023-01-26T07:04:54.326Z,1010.51
2023-01-26T07:05:56.578Z,1010.54
2023-01-26T07:06:54.313Z,1010.56
2023-01-26T07:07:54.308Z,1010.57
2023-01-26T07:08:54.269Z,1010.58
2023-01-26T07:09:54.276Z,1010.58
2023-01-26T07:10:54.313Z,1010.59
2023-01-26T07:11:54.272Z,1010.60
2023-01-26T07:12:54.228Z,1010.61
2023-01-26T07:13:54.247Z,1010.62
2023-01-26T07:14:54.239Z,1010.64
2023-01-26T07:15:54.241Z,1010.65
2023-01-26T07:16:54.212Z,1010.67
2023-01-26T07:17:54.213Z,1010.68
2023-01-26T07:18:54.182Z,1010.68
2023-01-26T07:19:54.193Z,1010.70
2023-01-26T07:20:54.144Z,1010.70
2023-01-26T07:21:54.153Z,1010.71
2023-01-26T07:22:54.137Z,1010.74
2023-01-26T07:23:54.220Z,1010.75
2023-01-26T07:24:54.103Z,1010.76
2023-01-26T07:25:54.131Z,1010.75
2023-01-26T07:26:54.081Z,1010.75
2023-01-26T07:27:54.082Z,1010.77
2023-01-26T07:28:54.086Z,1010.77
2023-01-26T07:29:54.092Z,1010.77
2023-01-26T07:30:54.096Z,1010.78
2023-01-26T07:31:54.109Z,1010.80
2023-01-26T07:32:54.018Z,1010.79
2023-01-26T07:33:54.044Z,1010.80
2023-01-26T07:34:54.026Z,1010.80
2023-01-26T07:35:54.022Z,1010.78
2023-01-26T07:36:53.993Z,1010.80
2023-01-26T07:37:53.983Z,1010.78
2023-01-26T07:38:53.956Z,1010.78
2023-01-26T07:39:53.960Z,1010.79
2023-01-26T07:40:53.963Z,1010.81
2023-01-26T07:41:53.957Z,1010.80
2023-01-26T07:42:53.916Z,1010.79
2023-01-26T07:43:53.991Z,1010.79
2023-01-26T07:44:53.918Z,1010.76
2023-01-26T07:45:53.906Z,1010.76
2023-01-26T07:46:54.016Z,1010.79
2023-01-26T07:47:53.880Z,1010.79
2023-01-26T07:48:53.851Z,1010.82
2023-01-26T07:49:53.864Z,1010.83
2023-01-26T07:50:53.867Z,1010.82
2023-01-26T07:51:53.871Z,1010.82
2023-01-26T07:52:53.813Z,1010.82
2023-01-26T07:53:53.824Z,1010.82
2023-01-26T07:54:53.798Z,1010.83
2023-01-26T07:55:53.795Z,1010.85
2023-01-26T07:56:53.779Z,1010.85
2023-01-26T07:57:53.796Z,1010.84
2023-01-26T07:58:53.786Z,1010.84
2023-01-26T07:59:53.760Z,1010.86
2023-01-26T08:00:53.760Z,1010.88
2023-01-26T08:01:53.916Z,1010.90
2023-01-26T08:02:53.815Z,1010.91
2023-01-26T08:03:53.747Z,1010.92
2023-01-26T08:04:53.697Z,1010.92
2023-01-26T08:05:53.708Z,1010.88
2023-01-26T08:06:53.690Z,1010.93
2023-01-26T08:07:53.671Z,1010.95
2023-01-26T08:08:53.727Z,1010.95
2023-01-26T08:09:53.654Z,1010.94
2023-01-26T08:10:53.628Z,1010.92
2023-01-26T08:11:53.632Z,1010.92
2023-01-26T08:12:53.614Z,1010.96
2023-01-26T08:13:53.638Z,1010.94
2023-01-26T08:14:53.607Z,1010.96
2023-01-26T08:15:53.602Z,1010.97
2023-01-26T08:16:53.565Z,1010.96
2023-01-26T08:17:54.589Z,1010.97
2023-01-26T08:18:53.549Z,1010.97
2023-01-26T08:19:53.567Z,1010.97
2023-01-26T08:20:53.521Z,1011.01
2023-01-26T08:21:53.530Z,1011.01
2023-01-26T08:22:53.505Z,1011.00
2023-01-26T08:23:53.552Z,1011.04
2023-01-26T08:24:53.509Z,1011.01
2023-01-26T08:25:53.532Z,1011.01
2023-01-26T08:26:53.501Z,1011.03
2023-01-26T08:27:53.470Z,1011.04
2023-01-26T08:28:53.451Z,1011.05
2023-01-26T08:29:53.473Z,1011.06
2023-01-26T08:30:53.499Z,1011.07
2023-01-26T08:31:53.526Z,1011.07
2023-01-26T08:32:53.409Z,1011.05
2023-01-26T08:33:53.416Z,1011.05
2023-01-26T08:34:53.409Z,1011.06
2023-01-26T08:35:53.400Z,1011.07
2023-01-26T08:36:53.401Z,1011.05
2023-01-26T08:37:53.384Z,1011.07
2023-01-26T08:38:53.370Z,1011.08
2023-01-26T08:39:53.355Z,1011.06
2023-01-26T08:40:53.354Z,1011.07
2023-01-26T08:41:53.323Z,1011.07
2023-01-26T08:42:53.295Z,1011.06
2023-01-26T08:43:53.326Z,1011.08
2023-01-26T08:44:53.281Z,1011.06
2023-01-26T08:45:53.331Z,1011.06
2023-01-26T08:46:53.263Z,1011.05
2023-01-26T08:47:53.267Z,1011.07
2023-01-26T08:48:53.233Z,1011.06
2023-01-26T08:49:53.255Z,1011.04
2023-01-26T08:50:53.222Z,1011.05
2023-01-26T08:51:53.223Z,1011.05
2023-01-26T08:52:53.202Z,1011.06
2023-01-26T08:53:53.222Z,1011.04
2023-01-26T08:54:53.193Z,1011.05
2023-01-26T08:55:53.219Z,1011.05
2023-01-26T08:56:53.171Z,1011.04
2023-01-26T08:57:53.179Z,1011.04
2023-01-26T08:58:53.147Z,1011.06
2023-01-26T08:59:53.151Z,1011.07
2023-01-26T09:00:53.172Z,1011.05
2023-01-26T09:01:53.170Z,1011.07
2023-01-26T09:02:53.186Z,1011.09
2023-01-26T09:03:53.098Z,1011.08
2023-01-26T09:04:53.086Z,1011.10
2023-01-26T09:05:53.093Z,1011.10
2023-01-26T09:06:53.052Z,1011.12
2023-01-26T09:07:53.057Z,1011.13
2023-01-26T09:08:53.037Z,1011.12
2023-01-26T09:09:53.059Z,1011.14
2023-01-26T09:10:53.013Z,1011.14
2023-01-26T09:11:53.033Z,1011.14
2023-01-26T09:12:52.999Z,1011.15
2023-01-26T09:13:53.021Z,1011.16
2023-01-26T09:14:52.977Z,1011.14
2023-01-26T09:15:52.976Z,1011.13
2023-01-26T09:16:53.008Z,1011.12
2023-01-26T09:17:52.952Z,1011.13
2023-01-26T09:18:52.942Z,1011.13
2023-01-26T09:19:52.957Z,1011.14
2023-01-26T09:20:52.911Z,1011.15
2023-01-26T09:21:53.814Z,1011.16
2023-01-26T09:22:52.896Z,1011.15
2023-01-26T09:23:52.951Z,1011.16
2023-01-26T09:24:52.888Z,1011.15
2023-01-26T09:25:52.887Z,1011.15
2023-01-26T09:26:52.848Z,1011.16
2023-01-26T09:27:52.863Z,1011.16
2023-01-26T09:28:52.887Z,1011.17
2023-01-26T09:29:52.850Z,1011.17
2023-01-26T09:30:52.888Z,1011.17
2023-01-26T09:31:52.998Z,1011.20
2023-01-26T09:32:52.785Z,1011.22
2023-01-26T09:33:52.793Z,1011.23
2023-01-26T09:34:52.974Z,1011.23
2023-01-26T09:35:52.777Z,1011.26
2023-01-26T09:36:52.755Z,1011.26
2023-01-26T09:37:52.751Z,1011.27
2023-01-26T09:38:52.730Z,1011.26
2023-01-26T09:39:52.727Z,1011.25
2023-01-26T09:40:52.749Z,1011.24
2023-01-26T09:41:52.711Z,1011.23
2023-01-26T09:42:52.684Z,1011.21
2023-01-26T09:43:52.692Z,1011.19
2023-01-26T09:44:52.667Z,1011.18
2023-01-26T09:45:52.676Z,1011.15
2023-01-26T09:46:52.661Z,1011.14
2023-01-26T09:47:52.915Z,1011.12
2023-01-26T09:48:52.645Z,1011.12
2023-01-26T09:49:53.959Z,1011.13
2023-01-26T09:50:52.604Z,1011.17
2023-01-26T09:51:52.641Z,1011.18
2023-01-26T09:52:52.602Z,1011.18
2023-01-26T09:53:52.594Z,1011.18
2023-01-26T09:54:52.575Z,1011.18
2023-01-26T09:55:52.569Z,1011.18
2023-01-26T09:56:52.542Z,1011.17
2023-01-26T09:57:52.590Z,1011.18
2023-01-26T09:58:52.515Z,1011.19
2023-01-26T09:59:52.536Z,1011.17
2023-01-26T10:00:52.504Z,1011.17
2023-01-26T10:01:52.517Z,1011.15
2023-01-26T10:02:52.570Z,1011.15
2023-01-26T10:03:52.500Z,1011.15
2023-01-26T10:04:52.486Z,1011.16
2023-01-26T10:05:52.471Z,1011.16
2023-01-26T10:06:52.470Z,1011.14
2023-01-26T10:07:52.449Z,1011.13
2023-01-26T10:08:52.425Z,1011.12
2023-01-26T10:09:52.416Z,1011.11
2023-01-26T10:10:52.399Z,1011.10
2023-01-26T10:11:52.407Z,1011.11
2023-01-26T10:12:52.428Z,1011.13
2023-01-26T10:13:52.386Z,1011.11
2023-01-26T10:14:52.373Z,1011.09
2023-01-26T10:15:52.399Z,1011.09
2023-01-26T10:16:52.333Z,1011.09
2023-01-26T10:17:52.349Z,1011.11
2023-01-26T10:18:52.329Z,1011.08
2023-01-26T10:19:52.340Z,1011.10
2023-01-26T10:20:52.298Z,1011.09
2023-01-26T10:21:52.324Z,1011.09
2023-01-26T10:22:52.318Z,1011.09
2023-01-26T10:23:52.346Z,1011.09
2023-01-26T10:24:52.285Z,1011.08
2023-01-26T10:25:52.282Z,1011.05
2023-01-26T10:26:52.228Z,1011.04
2023-01-26T10:27:52.259Z,1011.02
2023-01-26T10:28:52.263Z,1011.02
2023-01-26T10:29:52.255Z,1010.99
2023-01-26T10:30:52.282Z,1010.96
2023-01-26T10:31:52.195Z,1010.94
2023-01-26T10:32:52.207Z,1010.92
2023-01-26T10:33:52.179Z,1010.90
2023-01-26T10:34:52.160Z,1010.88
2023-01-26T10:35:52.175Z,1010.88
2023-01-26T10:36:52.149Z,1010.85
2023-01-26T10:37:52.169Z,1010.83
2023-01-26T10:38:52.115Z,1010.81
2023-01-26T10:39:52.119Z,1010.83
2023-01-26T10:40:52.097Z,1010.84
2023-01-26T10:41:52.089Z,1010.85
2023-01-26T10:42:52.093Z,1010.86
2023-01-26T10:43:52.120Z,1010.86
2023-01-26T10:44:52.053Z,1010.88
2023-01-26T10:45:52.088Z,1010.88
2023-01-26T10:46:52.030Z,1010.86
2023-01-26T10:47:52.038Z,1010.84
2023-01-26T10:48:52.016Z,1010.82
2023-01-26T10:49:52.040Z,1010.80
2023-01-26T10:50:51.996Z,1010.79
2023-01-26T10:51:52.005Z,1010.79
2023-01-26T10:52:51.978Z,1010.79
2023-01-26T10:53:52.003Z,1010.81
2023-01-26T10:54:51.959Z,1010.81
2023-01-26T10:55:51.948Z,1010.81
2023-01-26T10:56:51.944Z,1010.81
2023-01-26T10:57:51.960Z,1010.80
2023-01-26T10:58:51.936Z,1010.80
2023-01-26T10:59:51.950Z,1010.79
2023-01-26T11:00:51.885Z,1010.78
2023-01-26T11:01:51.952Z,1010.78
2023-01-26T11:02:51.910Z,1010.77
2023-01-26T11:03:53.509Z,1010.75
2023-01-26T11:04:51.858Z,1010.75
2023-01-26T11:05:51.847Z,1010.73
2023-01-26T11:06:51.844Z,1010.71
2023-01-26T11:07:51.835Z,1010.69
2023-01-26T11:08:51.879Z,1010.67
2023-01-26T11:09:53.450Z,1010.67
2023-01-26T11:10:51.819Z,1010.71
2023-01-26T11:11:51.811Z,1010.71
2023-01-26T11:12:51.768Z,1010.72
2023-01-26T11:13:51.769Z,1010.72
2023-01-26T11:14:51.752Z,1010.73
2023-01-26T11:15:51.833Z,1010.69
2023-01-26T11:16:51.739Z,1010.70
2023-01-26T11:17:51.733Z,1010.67
2023-01-26T11:18:51.758Z,1010.67
2023-01-26T11:19:51.729Z,1010.62
2023-01-26T11:20:51.697Z,1010.59
2023-01-26T11:21:51.714Z,1010.57
2023-01-26T11:22:51.669Z,1010.56
2023-01-26T11:23:51.660Z,1010.54
2023-01-26T11:24:51.675Z,1010.53
2023-01-26T11:25:51.626Z,1010.52
2023-01-26T11:26:51.638Z,1010.51
2023-01-26T11:27:51.606Z,1010.50
2023-01-26T11:28:51.629Z,1010.47
2023-01-26T11:29:51.589Z,1010.45
2023-01-26T11:30:51.675Z,1010.44
2023-01-26T11:31:51.636Z,1010.41
2023-01-26T11:32:51.584Z,1010.40
2023-01-26T11:33:51.584Z,1010.39
2023-01-26T11:34:51.557Z,1010.40
2023-01-26T11:35:51.538Z,1010.40
2023-01-26T11:36:51.555Z,1010.40
2023-01-26T11:37:53.821Z,1010.38
2023-01-26T11:38:51.521Z,1010.36
2023-01-26T11:39:51.504Z,1010.35
2023-01-26T11:40:51.495Z,1010.34
2023-01-26T11:41:51.465Z,1010.36
2023-01-26T11:42:51.515Z,1010.36
2023-01-26T11:43:51.483Z,1010.39
2023-01-26T11:44:51.466Z,1010.42
2023-01-26T11:45:51.456Z,1010.41
2023-01-26T11:46:51.426Z,1010.40
2023-01-26T11:47:51.436Z,1010.37
2023-01-26T11:48:51.411Z,1010.35
2023-01-26T11:49:51.453Z,1010.32
2023-01-26T11:50:51.455Z,1010.29
2023-01-26T11:51:51.407Z,1010.26
2023-01-26T11:52:51.382Z,1010.25
2023-01-26T11:53:51.338Z,1010.23
2023-01-26T11:54:51.350Z,1010.21
2023-01-26T11:55:51.332Z,1010.19
2023-01-26T11:56:51.348Z,1010.16
2023-01-26T11:57:51.324Z,1010.14
2023-01-26T11:58:51.312Z,1010.13
2023-01-26T11:59:51.292Z,1010.14
2023-01-26T12:00:51.310Z,1010.15
2023-01-26T12:01:51.274Z,1010.16
2023-01-26T12:02:51.270Z,1010.15
2023-01-26T12:03:51.286Z,1010.12
2023-01-26T12:04:51.251Z,1010.11
2023-01-26T12:05:51.224Z,1010.08
2023-01-26T12:06:51.271Z,1010.10
2023-01-26T12:07:51.319Z,1010.10
2023-01-26T12:08:51.211Z,1010.08
2023-01-26T12:09:51.318Z,1010.08
2023-01-26T12:10:51.186Z,1010.09
2023-01-26T12:11:51.152Z,1010.06
2023-01-26T12:12:51.169Z,1010.04
2023-01-26T12:13:51.161Z,1010.03
2023-01-26T12:14:51.183Z,1009.99
2023-01-26T12:15:51.190Z,1009.98
2023-01-26T12:16:51.242Z,1009.96
2023-01-26T12:17:51.409Z,1009.95
2023-01-26T12:19:05.479Z,1009.96
2023-01-26T12:19:51.098Z,1009.94
2023-01-26T12:20:51.106Z,1009.94
2023-01-26T12:21:51.080Z,1009.93
2023-01-26T12:22:51.096Z,1009.90
2023-01-26T12:23:51.158Z,1009.88
2023-01-26T12:25:20.708Z,1009.84
2023-01-26T12:25:51.177Z,1009.82
2023-01-26T12:26:51.017Z,1009.79
2023-01-26T12:27:51.031Z,1009.75
2023-01-26T12:28:51.003Z,1009.74
2023-01-26T12:29:51.015Z,1009.73
2023-01-26T12:30:51.075Z,1009.72
2023-01-26T12:31:50.971Z,1009.71
2023-01-26T12:32:50.960Z,1009.70
2023-01-26T12:33:50.929Z,1009.69
2023-01-26T12:34:50.933Z,1009.66
2023-01-26T12:35:50.946Z,1009.64
2023-01-26T12:36:50.911Z,1009.62
2023-01-26T12:37:50.901Z,1009.61
2023-01-26T12:38:50.895Z,1009.61
2023-01-26T12:39:50.875Z,1009.60
2023-01-26T12:40:50.892Z,1009.60
2023-01-26T12:41:50.871Z,1009.58
2023-01-26T12:42:50.870Z,1009.58
2023-01-26T12:43:50.838Z,1009.60
2023-01-26T12:44:50.838Z,1009.59
2023-01-26T12:45:50.887Z,1009.59
2023-01-26T12:46:50.808Z,1009.57
2023-01-26T12:47:50.811Z,1009.56
2023-01-26T12:48:50.786Z,1009.57
2023-01-26T12:49:50.936Z,1009.55
2023-01-26T12:50:50.790Z,1009.54
2023-01-26T12:51:50.739Z,1009.53
2023-01-26T12:52:50.795Z,1009.53
2023-01-26T12:53:50.768Z,1009.55
2023-01-26T12:54:50.750Z,1009.56
2023-01-26T12:55:50.709Z,1009.56
2023-01-26T12:56:50.715Z,1009.55
2023-01-26T12:57:50.696Z,1009.54
2023-01-26T12:58:50.725Z,1009.54
2023-01-26T12:59:50.741Z,1009.54
2023-01-26T13:00:50.679Z,1009.54
2023-01-26T13:01:50.640Z,1009.54
2023-01-26T13:02:50.788Z,1009.54
2023-01-26T13:03:50.625Z,1009.53
2023-01-26T13:04:50.665Z,1009.53
2023-01-26T13:05:50.629Z,1009.52
2023-01-26T13:06:50.649Z,1009.52
2023-01-26T13:07:50.583Z,1009.52
2023-01-26T13:08:50.586Z,1009.52
2023-01-26T13:09:50.557Z,1009.52
2023-01-26T13:10:50.587Z,1009.52
2023-01-26T13:11:50.546Z,1009.52
2023-01-26T13:12:50.641Z,1009.51
2023-01-26T13:13:50.512Z,1009.50
2023-01-26T13:14:50.516Z,1009.47
2023-01-26T13:15:50.513Z,1009.45
2023-01-26T13:16:50.531Z,1009.44
2023-01-26T13:17:50.485Z,1009.45
2023-01-26T13:18:50.509Z,1009.47
2023-01-26T13:19:50.459Z,1009.48
2023-01-26T13:20:50.471Z,1009.47
2023-01-26T13:21:50.437Z,1009.47
2023-01-26T13:22:50.444Z,1009.48
2023-01-26T13:23:52.423Z,1009.47
2023-01-26T13:24:50.425Z,1009.47
2023-01-26T13:25:56.451Z,1009.42
2023-01-26T13:26:50.420Z,1009.45
2023-01-26T13:27:50.368Z,1009.44
2023-01-26T13:28:50.390Z,1009.46
2023-01-26T13:29:50.364Z,1009.43
2023-01-26T13:30:50.503Z,1009.42
2023-01-26T13:31:50.410Z,1009.40
2023-01-26T13:32:50.362Z,1009.39
2023-01-26T13:33:50.347Z,1009.41
2023-01-26T13:34:50.355Z,1009.42
2023-01-26T13:35:50.293Z,1009.44
2023-01-26T13:36:50.314Z,1009.45
2023-01-26T13:37:50.277Z,1009.43
2023-01-26T13:38:50.292Z,1009.43
2023-01-26T13:39:50.269Z,1009.43
2023-01-26T13:40:50.270Z,1009.43
2023-01-26T13:41:50.236Z,1009.44
2023-01-26T13:42:50.236Z,1009.42
2023-01-26T13:43:50.240Z,1009.44
2023-01-26T13:44:50.215Z,1009.44
2023-01-26T13:45:50.200Z,1009.47
2023-01-26T13:46:50.222Z,1009.48
2023-01-26T13:47:50.192Z,1009.47
2023-01-26T13:48:50.215Z,1009.48
2023-01-26T13:49:50.154Z,1009.47
2023-01-26T13:50:50.165Z,1009.47
2023-01-26T13:51:50.151Z,1009.45
2023-01-26T13:52:50.145Z,1009.44
2023-01-26T13:53:50.143Z,1009.44
2023-01-26T13:54:50.128Z,1009.43
2023-01-26T13:55:50.097Z,1009.44
2023-01-26T13:56:50.099Z,1009.43
2023-01-26T13:57:50.076Z,1009.44
2023-01-26T13:58:50.070Z,1009.47
2023-01-26T13:59:50.108Z,1009.48
2023-01-26T14:00:50.065Z,1009.51
2023-01-26T14:01:50.100Z,1009.48
2023-01-26T14:02:50.250Z,1009.46
2023-01-26T14:03:50.002Z,1009.45
2023-01-26T14:04:50.022Z,1009.46
2023-01-26T14:05:50.031Z,1009.45
2023-01-26T14:06:49.991Z,1009.45
2023-01-26T14:07:49.955Z,1009.47
2023-01-26T14:08:50.000Z,1009.47
2023-01-26T14:09:49.950Z,1009.49
2023-01-26T14:10:50.002Z,1009.52
2023-01-26T14:11:49.957Z,1009.54
2023-01-26T14:12:50.102Z,1009.56
2023-01-26T14:13:49.909Z,1009.56
2023-01-26T14:14:49.916Z,1009.56
2023-01-26T14:15:49.907Z,1009.58
2023-01-26T14:16:49.925Z,1009.57
2023-01-26T14:17:49.890Z,1009.62
2023-01-26T14:18:49.883Z,1009.61
2023-01-26T14:19:49.860Z,1009.63
2023-01-26T14:20:49.856Z,1009.62
2023-01-26T14:21:49.831Z,1009.64
2023-01-26T14:22:50.181Z,1009.64
2023-01-26T14:23:49.882Z,1009.66
2023-01-26T14:24:49.839Z,1009.67
2023-01-26T14:25:49.809Z,1009.66
2023-01-26T14:26:49.809Z,1009.68
2023-01-26T14:27:49.763Z,1009.69
2023-01-26T14:28:49.768Z,1009.73
2023-01-26T14:29:49.748Z,1009.74
2023-01-26T14:30:49.908Z,1009.77
2023-01-26T14:31:49.773Z,1009.79
2023-01-26T14:32:50.629Z,1009.81
2023-01-26T14:33:49.702Z,1009.82
2023-01-26T14:34:49.733Z,1009.84
2023-01-26T14:35:49.760Z,1009.84
2023-01-26T14:36:49.684Z,1009.86
2023-01-26T14:37:49.667Z,1009.86
2023-01-26T14:38:49.669Z,1009.86
2023-01-26T14:39:49.644Z,1009.87
2023-01-26T14:40:49.694Z,1009.88
2023-01-26T14:41:49.623Z,1009.88
2023-01-26T14:42:49.650Z,1009.88
2023-01-26T14:43:49.599Z,1009.87
2023-01-26T14:44:49.612Z,1009.88
2023-01-26T14:45:49.625Z,1009.89
2023-01-26T14:46:49.676Z,1009.89
2023-01-26T14:47:49.562Z,1009.90
2023-01-26T14:48:49.583Z,1009.89
2023-01-26T14:49:49.556Z,1009.88
2023-01-26T14:50:49.532Z,1009.88
2023-01-26T14:51:49.523Z,1009.89
2023-01-26T14:52:49.553Z,1009.89
2023-01-26T14:53:49.528Z,1009.89
2023-01-26T14:54:49.493Z,1009.89
2023-01-26T14:55:49.488Z,1009.91
2023-01-26T14:56:49.484Z,1009.88
2023-01-26T14:57:49.449Z,1009.86
2023-01-26T14:58:49.475Z,1009.85
2023-01-26T14:59:49.454Z,1009.82
2023-01-26T15:00:49.553Z,1009.82
2023-01-26T15:01:49.509Z,1009.77
2023-01-26T15:02:49.415Z,1009.76
2023-01-26T15:03:49.410Z,1009.75
2023-01-26T15:04:49.402Z,1009.73
2023-01-26T15:05:49.394Z,1009.74
2023-01-26T15:06:49.389Z,1009.75
2023-01-26T15:07:49.350Z,1009.76
2023-01-26T15:08:49.370Z,1009.76
2023-01-26T15:09:49.325Z,1009.75
2023-01-26T15:10:49.343Z,1009.74
2023-01-26T15:11:49.302Z,1009.73
2023-01-26T15:12:49.316Z,1009.73
2023-01-26T15:13:49.300Z,1009.72
2023-01-26T15:14:49.305Z,1009.69
2023-01-26T15:15:49.332Z,1009.69
2023-01-26T15:16:49.277Z,1009.67
2023-01-26T15:17:49.248Z,1009.66
2023-01-26T15:18:49.255Z,1009.64
2023-01-26T15:19:49.239Z,1009.64
2023-01-26T15:20:49.236Z,1009.63
2023-01-26T15:21:49.201Z,1009.64
2023-01-26T15:22:49.227Z,1009.65
2023-01-26T15:23:49.214Z,1009.66
2023-01-26T15:24:49.195Z,1009.68
2023-01-26T15:25:49.205Z,1009.70
2023-01-26T15:26:49.187Z,1009.71
2023-01-26T15:27:49.141Z,1009.72
2023-01-26T15:28:49.144Z,1009.73
2023-01-26T15:29:49.117Z,1009.73
2023-01-26T15:30:49.158Z,1009.73
2023-01-26T15:31:49.151Z,1009.72
2023-01-26T15:32:49.118Z,1009.72
2023-01-26T15:33:49.077Z,1009.71
2023-01-26T15:34:49.112Z,1009.70
2023-01-26T15:35:49.071Z,1009.69
2023-01-26T15:36:49.124Z,1009.68
2023-01-26T15:37:49.060Z,1009.68
2023-01-26T15:38:49.042Z,1009.68
2023-01-26T15:39:49.052Z,1009.67
2023-01-26T15:40:49.064Z,1009.67
2023-01-26T15:41:49.097Z,1009.68
2023-01-26T15:42:48.985Z,1009.69
2023-01-26T15:43:48.991Z,1009.70
2023-01-26T15:44:48.966Z,1009.72
2023-01-26T15:45:49.005Z,1009.72
2023-01-26T15:46:49.001Z,1009.71
2023-01-26T15:47:48.977Z,1009.70
2023-01-26T15:48:48.932Z,1009.70
2023-01-26T15:49:48.935Z,1009.69
2023-01-26T15:50:48.905Z,1009.69
2023-01-26T15:51:48.903Z,1009.68
2023-01-26T15:52:48.903Z,1009.66
2023-01-26T15:53:48.891Z,1009.66
2023-01-26T15:54:48.999Z,1009.66
2023-01-26T15:55:48.866Z,1009.67
2023-01-26T15:56:48.840Z,1009.66
2023-01-26T15:57:48.840Z,1009.64
2023-01-26T15:58:48.838Z,1009.64
2023-01-26T15:59:48.890Z,1009.63
2023-01-26T16:00:48.976Z,1009.63
2023-01-26T16:01:48.855Z,1009.64
2023-01-26T16:02:48.795Z,1009.65
2023-01-26T16:03:48.783Z,1009.67
2023-01-26T16:04:48.775Z,1009.68
2023-01-26T16:05:48.789Z,1009.68
2023-01-26T16:06:48.761Z,1009.67
2023-01-26T16:07:49.272Z,1009.68
2023-01-26T16:08:48.715Z,1009.68
2023-01-26T16:09:48.719Z,1009.68
2023-01-26T16:10:48.724Z,1009.69
2023-01-26T16:11:48.717Z,1009.69
2023-01-26T16:12:48.704Z,1009.69
2023-01-26T16:14:02.301Z,1009.70
2023-01-26T16:14:48.704Z,1009.71
2023-01-26T16:15:48.720Z,1009.71
2023-01-26T16:16:48.702Z,1009.70
2023-01-26T16:17:48.647Z,1009.68
2023-01-26T16:18:48.619Z,1009.65
2023-01-26T16:19:48.632Z,1009.63
2023-01-26T16:20:48.608Z,1009.60
2023-01-26T16:21:48.635Z,1009.58
2023-01-26T16:22:48.618Z,1009.58
2023-01-26T16:23:48.619Z,1009.58
2023-01-26T16:24:48.579Z,1009.59
2023-01-26T16:25:48.592Z,1009.58
2023-01-26T16:26:48.564Z,1009.58
2023-01-26T16:27:48.642Z,1009.59
2023-01-26T16:28:48.575Z,1009.60
2023-01-26T16:29:48.520Z,1009.61
2023-01-26T16:30:48.543Z,1009.61
2023-01-26T16:31:48.638Z,1009.62
2023-01-26T16:32:48.582Z,1009.62
2023-01-26T16:33:48.560Z,1009.63
2023-01-26T16:34:48.509Z,1009.65
2023-01-26T16:35:48.508Z,1009.65